Main page
METAR-TAF:

METAR-TAF

Airports :

Rabat–Salé Airport

Rabat, Morocco

latitude: 34-03N, longitude: 006-46W, elevation: 84 m

Current weather observation

The report was made 16 minutes ago, at 00:00 UTC
Wind 3 kt from the South, varying between South/Southeast and Southwest
Temperature 10°C
Humidity 100%
Pressure 1013 hPa
Visibility: 5000 m

METAR: GMME 250000Z 19003KT 160V220 5000 NSC 10/10 Q1013 NOSIG

Time: 01:16 (00:16 UTC)

Forecast

The report was made 1 hour and 16 minutes ago, at 23:00 UTC
Forecast valid from 25 at 00 UTC to 26 at 06 UTC
Wind 14 kt from the North/Northeast
Visibility: 5000 m
Probability 30% :
Temporary
from 25 at 04 UTC to 25 at 10 UTC
Wind kt from the North
Visibility: 3000 m
Broken clouds at a height of 1000 ft
mist,

TAF: GMME 242300Z 2500/2606 02014KT 5000 NSC PROB30 TEMPO 2504/2510 00000KT 3000 BR BKN010

Weather observations and forecasts of more than 4000 airports (METAR and TAF reports).

The available stations are represented by yellow and red dots on the map.

Hover mouse over dot to see the name of the station.

Then click to see weather observations and forecasts.

To change the map : click on the green buttons with a black cross to zoom in, on the green button with a dash to zoom out, or on the green arrows for adjacent maps.


METAR-TAF: